Time;durP1;ratioP1;P1;durP2;ratioP2;P2;SDS_P1;SDS_P2;PMS_P1;PMS_P2;Temp;Humidity;BMP_temperature;BMP_pressure;BME280_temperature;BME280_humidity;BME280_pressure;Samples;Min_cycle;Max_cycle;Signal;HPM_P1;HPM_P2
2022/03/12 00:01:58;;;;;;;21.90;10.20;;;;;;;-6.64;60.04;102399.86;84297;1337;25338;-82
2022/03/12 00:04:12;;;;;;;19.50;9.90;;;;;;;-6.69;60.36;102397.14;84288;1339;22607;-81
2022/03/12 00:06:21;;;;;;;21.50;11.90;;;;;;;-6.76;60.54;102397.40;83592;1338;1003605;-80
2022/03/12 00:08:42;;;;;;;22.70;10.40;;;;;;;-6.83;60.44;102393.88;84316;1336;22638;-67
2022/03/12 00:10:52;;;;;;;20.80;11.00;;;;;;;-6.89;60.55;102394.68;84298;1337;23649;-67
2022/03/12 00:13:01;;;;;;;23.60;10.30;;;;;;;-6.94;61.03;102395.89;84289;1339;22601;-67
2022/03/12 00:15:14;;;;;;;21.80;10.70;;;;;;;-7.00;61.07;102392.59;84329;1338;22612;-67
2022/03/12 00:17:25;;;;;;;20.90;9.80;;;;;;;-7.07;61.25;102391.84;84312;1337;22605;-67
2022/03/12 00:19:35;;;;;;;16.90;9.70;;;;;;;-7.11;61.25;102394.39;84317;1339;22823;-80
2022/03/12 00:21:45;;;;;;;19.50;10.30;;;;;;;-7.18;61.60;102393.44;84327;1337;22678;-81
2022/03/12 00:23:56;;;;;;;;;;;;;;;-7.23;61.76;102393.42;83640;1339;1003373;-81
2022/03/12 00:26:05;;;;;;;17.20;10.00;;;;;;;-7.32;61.96;102390.52;83608;1338;1002803;-81
2022/03/12 00:28:15;;;;;;;18.40;9.60;;;;;;;-7.35;62.36;102394.73;84325;1338;25480;-67
2022/03/12 00:30:26;;;;;;;16.40;9.30;;;;;;;-7.38;62.48;102390.27;84319;1338;22651;-68
2022/03/12 00:32:38;;;;;;;16.80;9.00;;;;;;;-7.40;62.54;102390.83;84251;1337;22598;-67
2022/03/12 00:34:47;;;;;;;21.00;9.70;;;;;;;-7.40;62.91;102390.59;84318;1338;22602;-68
2022/03/12 00:36:56;;;;;;;21.00;10.40;;;;;;;-7.40;62.96;102383.49;84294;1338;22700;-68
2022/03/12 00:39:06;;;;;;;15.90;8.90;;;;;;;-7.39;62.96;102377.99;84327;1338;22597;-68
2022/03/12 00:41:18;;;;;;;17.30;9.20;;;;;;;-7.35;62.89;102376.88;84313;1339;25463;-68
2022/03/12 00:43:30;;;;;;;17.00;9.70;;;;;;;-7.33;62.97;102375.85;84316;1339;22596;-81
2022/03/12 00:45:39;;;;;;;17.70;9.00;;;;;;;-7.29;63.12;102375.09;84296;1339;24882;-82
2022/03/12 00:47:50;;;;;;;19.40;10.40;;;;;;;-7.23;63.00;102370.37;84308;1338;24264;-81
2022/03/12 00:49:59;;;;;;;18.20;9.40;;;;;;;-7.22;62.84;102372.49;84306;1339;25348;-68
2022/03/12 00:52:10;;;;;;;21.00;10.20;;;;;;;-7.21;62.78;102372.02;84312;1337;22599;-69
2022/03/12 00:54:22;;;;;;;19.30;9.70;;;;;;;-7.17;62.95;102374.52;83608;1338;1002914;-69
2022/03/12 00:56:31;;;;;;;24.60;10.50;;;;;;;-7.14;62.94;102376.63;84329;1337;22627;-68
2022/03/12 00:58:45;;;;;;;18.60;10.80;;;;;;;-7.11;62.90;102374.08;84323;1339;22700;-81
2022/03/12 01:00:57;;;;;;;16.10;9.00;;;;;;;-7.10;63.00;102373.95;84313;1338;22598;-82
2022/03/12 01:03:06;;;;;;;19.80;10.30;;;;;;;-7.10;62.84;102372.25;84316;1336;23078;-79
2022/03/12 01:05:18;;;;;;;24.80;11.30;;;;;;;-7.10;62.79;102371.42;84289;1338;22689;-82
2022/03/12 01:07:27;;;;;;;22.00;11.00;;;;;;;-7.10;62.74;102372.63;84321;1339;22611;-82
2022/03/12 01:09:39;;;;;;;23.00;9.80;;;;;;;-7.11;62.73;102369.98;84302;1338;22734;-67
2022/03/12 01:11:48;;;;;;;23.40;11.00;;;;;;;-7.13;62.86;102367.67;84306;1339;22600;-67
2022/03/12 01:14:01;;;;;;;21.80;10.10;;;;;;;-7.16;63.07;102373.09;84304;1340;22590;-68
2022/03/12 01:16:10;;;;;;;19.30;9.90;;;;;;;-7.20;63.11;102368.73;84316;1338;25659;-68
2022/03/12 01:18:21;;;;;;;22.70;10.60;;;;;;;-7.24;63.16;102369.11;84274;1338;22624;-68
2022/03/12 01:20:34;;;;;;;24.40;10.40;;;;;;;-7.32;63.21;102370.70;84284;1337;22597;-69
2022/03/12 01:22:43;;;;;;;22.70;11.10;;;;;;;-7.39;63.36;102368.35;84329;1339;24235;-68
2022/03/12 01:24:52;;;;;;;21.20;9.80;;;;;;;-7.45;63.61;102370.11;83589;1338;1003914;-81
2022/03/12 01:27:04;;;;;;;22.60;10.00;;;;;;;-7.51;63.70;102367.65;84311;1337;22596;-81
2022/03/12 01:29:14;;;;;;;21.30;11.20;;;;;;;-7.59;63.90;102369.20;84334;1338;25015;-79
2022/03/12 01:31:26;;;;;;;23.20;10.60;;;;;;;-7.63;63.97;102366.70;84292;1332;22631;-80
2022/03/12 01:33:36;;;;;;;22.40;10.40;;;;;;;-7.69;64.25;102362.95;84313;1339;22895;-67
2022/03/12 01:35:46;;;;;;;20.50;10.20;;;;;;;-7.73;64.41;102365.48;84347;1339;22641;-67
2022/03/12 01:37:56;;;;;;;22.30;11.90;;;;;;;-7.76;64.57;102363.77;83607;1336;1003078;-67
2022/03/12 01:40:05;;;;;;;20.30;10.10;;;;;;;-7.79;64.50;102360.04;84324;1338;22629;-81
2022/03/12 01:42:15;;;;;;;17.20;9.90;;;;;;;-7.80;64.82;102359.44;84287;1340;22613;-80
2022/03/12 01:44:24;;;;;;;19.30;9.30;;;;;;;-7.80;65.00;102361.98;84317;1339;22618;-80
2022/03/12 01:46:39;;;;;;;17.90;9.60;;;;;;;-7.79;65.25;102358.88;84303;1339;25503;-81
2022/03/12 01:48:52;;;;;;;18.90;10.00;;;;;;;-7.76;65.25;102359.72;83598;1339;1003106;-81
2022/03/12 01:51:01;;;;;;;24.70;10.80;;;;;;;-7.73;65.31;102357.35;84306;1339;23946;-80
2022/03/12 01:53:14;;;;;;;20.30;10.80;;;;;;;-7.72;65.53;102355.75;84320;1337;22865;-80
2022/03/12 01:55:23;;;;;;;21.90;10.80;;;;;;;-7.70;65.46;102359.08;84318;1338;24991;-81
2022/03/12 01:57:36;;;;;;;20.80;10.20;;;;;;;-7.69;65.24;102354.96;84279;1337;22785;-81
2022/03/12 01:59:46;;;;;;;19.70;10.60;;;;;;;-7.71;65.17;102354.85;84352;1337;26006;-68
2022/03/12 02:01:58;;;;;;;22.80;9.20;;;;;;;-7.71;65.25;102355.14;84320;1339;25846;-67
2022/03/12 02:04:11;;;;;;;22.80;10.90;;;;;;;-7.71;65.33;102356.17;83599;1337;1003518;-68
2022/03/12 02:06:21;;;;;;;19.80;10.80;;;;;;;-7.69;65.24;102353.60;84312;1337;22589;-68
2022/03/12 02:08:31;;;;;;;21.80;10.90;;;;;;;-7.67;65.33;102353.22;84343;1338;24293;-68
2022/03/12 02:10:40;;;;;;;18.70;9.30;;;;;;;-7.68;65.25;102356.57;84312;1339;22689;-68
2022/03/12 02:12:49;;;;;;;21.50;10.10;;;;;;;-7.69;65.27;102354.64;84108;1338;22605;-68
2022/03/12 02:14:58;;;;;;;21.00;10.20;;;;;;;-7.69;65.04;102352.25;84322;1338;22602;-80
2022/03/12 02:17:13;;;;;;;23.70;10.20;;;;;;;-7.72;65.34;102352.20;84270;1337;22720;-80
2022/03/12 02:19:26;;;;;;;17.70;9.90;;;;;;;-7.72;65.28;102352.19;84289;1330;22659;-81
2022/03/12 02:21:38;;;;;;;18.10;9.40;;;;;;;-7.73;65.40;102351.62;84148;1339;269252;-81
2022/03/12 02:23:51;;;;;;;17.40;10.30;;;;;;;-7.75;65.43;102348.96;84315;1338;22674;-69
2022/03/12 02:26:06;;;;;;;24.40;10.70;;;;;;;-7.74;65.45;102346.59;84309;1337;22607;-68
2022/03/12 02:28:21;;;;;;;18.30;9.80;;;;;;;-7.76;65.39;102339.91;84343;1339;25451;-79
2022/03/12 02:30:37;;;;;;;18.80;9.50;;;;;;;-7.79;65.46;102340.09;84294;1337;22599;-81
2022/03/12 02:32:47;;;;;;;19.80;9.70;;;;;;;-7.83;65.41;102340.09;84311;1337;22822;-80
2022/03/12 02:34:58;;;;;;;18.00;9.10;;;;;;;-7.85;65.46;102338.98;84338;1339;22741;-81
2022/03/12 02:37:08;;;;;;;22.90;10.40;;;;;;;-7.83;65.73;102338.78;84302;1339;22603;-80
2022/03/12 02:39:18;;;;;;;18.40;9.30;;;;;;;-7.79;65.90;102335.95;84317;1334;22619;-81
2022/03/12 02:41:28;;;;;;;17.50;8.90;;;;;;;-7.77;65.78;102333.05;83583;1337;1003217;-81
2022/03/12 02:43:43;;;;;;;16.50;9.40;;;;;;;-7.76;65.73;102329.23;84345;1337;24016;-80
2022/03/12 02:45:56;;;;;;;20.40;9.40;;;;;;;-7.75;65.55;102331.33;84332;1337;22625;-80
2022/03/12 02:48:10;;;;;;;21.10;9.90;;;;;;;-7.73;65.46;102329.58;84297;1338;24042;-78
2022/03/12 02:50:19;;;;;;;17.50;9.30;;;;;;;-7.72;65.33;102327.96;84324;1337;24248;-80
2022/03/12 02:52:30;;;;;;;18.20;9.40;;;;;;;-7.75;65.22;102325.75;84319;1339;22843;-79
2022/03/12 02:54:42;;;;;;;20.30;10.60;;;;;;;-7.77;65.01;102333.93;83617;1329;1003094;-68
2022/03/12 02:56:51;;;;;;;24.20;10.70;;;;;;;-7.78;65.10;102338.94;83481;1338;1002608;-68
2022/03/12 02:59:00;;;;;;;24.70;11.40;;;;;;;-7.80;65.26;102338.82;84333;1339;22854;-68
2022/03/12 03:01:14;;;;;;;23.00;11.20;;;;;;;-7.85;64.95;102335.77;84302;1339;22606;-67
2022/03/12 03:03:26;;;;;;;24.10;10.90;;;;;;;-7.89;65.15;102335.11;84334;1339;25373;-79
2022/03/12 03:05:47;;;;;;;22.40;10.40;;;;;;;-7.98;65.00;102330.98;84182;1339;25375;-80
2022/03/12 03:08:01;;;;;;;24.50;10.20;;;;;;;-8.05;65.30;102327.75;83619;1339;1003137;-79
2022/03/12 03:10:11;;;;;;;17.50;9.30;;;;;;;-8.14;65.26;102330.39;84296;1340;22609;-68
2022/03/12 03:12:22;;;;;;;20.60;10.10;;;;;;;-8.21;65.58;102331.24;84321;1339;22600;-68
2022/03/12 03:14:34;;;;;;;17.80;10.30;;;;;;;-8.28;65.62;102331.40;84299;1338;22786;-68
2022/03/12 03:16:45;;;;;;;21.50;10.30;;;;;;;-8.36;65.74;102325.48;83614;1338;1003924;-67
2022/03/12 03:18:57;;;;;;;18.90;10.10;;;;;;;-8.42;65.87;102325.60;84318;1337;22854;-67
2022/03/12 03:21:09;;;;;;;21.30;11.10;;;;;;;-8.47;65.90;102326.11;84305;1339;22671;-67
2022/03/12 03:23:22;;;;;;;19.70;10.50;;;;;;;-8.50;66.02;102321.10;83644;1339;1003720;-68
2022/03/12 03:25:31;;;;;;;21.10;9.90;;;;;;;-8.55;66.17;102325.02;84202;1338;22602;-67
2022/03/12 03:27:40;;;;;;;43.40;12.00;;;;;;;-8.59;66.22;102326.11;84163;1342;26633;-67
2022/03/12 03:29:49;;;;;;;20.40;10.70;;;;;;;-8.61;66.29;102327.01;84341;1330;22569;-67
2022/03/12 03:32:01;;;;;;;21.50;10.40;;;;;;;-8.61;66.48;102323.43;83620;1338;1003784;-68
2022/03/12 03:34:11;;;;;;;19.00;10.50;;;;;;;-8.59;66.47;102325.04;84331;1330;23137;-81
2022/03/12 03:36:23;;;;;;;21.00;10.30;;;;;;;-8.58;66.45;102326.30;83796;1319;1002946;-80
2022/03/12 03:38:32;;;;;;;16.90;10.10;;;;;;;-8.56;66.58;102323.21;84456;1330;24342;-79
2022/03/12 03:40:46;;;;;;;19.50;10.50;;;;;;;-8.55;66.76;102321.48;84481;1337;23017;-67
2022/03/12 03:42:55;;;;;;;20.30;10.00;;;;;;;-8.52;66.52;102317.23;84459;1335;23985;-68
2022/03/12 03:45:05;;;;;;;17.50;9.00;;;;;;;-8.49;66.75;102317.31;84394;1339;25338;-68
2022/03/12 03:47:14;;;;;;;19.40;9.30;;;;;;;-8.49;66.75;102318.85;84358;1335;24303;-67
2022/03/12 03:49:24;;;;;;;21.60;10.20;;;;;;;-8.43;66.67;102321.11;84377;1335;22740;-79
2022/03/12 03:51:42;;;;;;;22.40;10.70;;;;;;;-8.37;66.66;102319.36;84415;1339;22725;-80
2022/03/12 03:53:52;;;;;;;27.60;10.50;;;;;;;-8.30;66.54;102314.36;84386;1336;22600;-79
2022/03/12 03:56:05;;;;;;;21.10;10.80;;;;;;;-8.29;66.63;102319.81;84263;1338;22670;-68
2022/03/12 03:58:15;;;;;;;17.70;10.20;;;;;;;-8.31;66.41;102320.27;84355;1339;22615;-70
2022/03/12 04:00:27;;;;;;;27.90;12.20;;;;;;;-8.29;66.50;102318.50;84373;1336;22724;-79
2022/03/12 04:02:36;;;;;;;28.50;11.50;;;;;;;-8.31;66.35;102317.87;84366;1339;22715;-80
2022/03/12 04:04:49;;;;;;;25.00;11.60;;;;;;;-8.33;66.40;102318.89;84394;1334;25334;-80
2022/03/12 04:06:58;;;;;;;24.90;12.10;;;;;;;-8.38;66.19;102319.28;84250;1338;23970;-68
2022/03/12 04:09:07;;;;;;;30.00;12.70;;;;;;;-8.42;66.22;102320.48;83683;1336;1003084;-68
2022/03/12 04:11:22;;;;;;;26.10;12.50;;;;;;;-8.48;66.09;102323.27;83694;1339;1003902;-79
2022/03/12 04:13:31;;;;;;;26.30;11.20;;;;;;;-8.56;66.01;102327.78;83614;1338;1003087;-81
2022/03/12 04:15:44;;;;;;;24.50;9.70;;;;;;;-8.64;66.00;102326.59;84311;1337;22922;-68
2022/03/12 04:17:53;;;;;;;23.10;11.60;;;;;;;-8.71;66.11;102322.21;84396;1335;24824;-68
2022/03/12 04:20:03;;;;;;;23.40;12.30;;;;;;;-8.77;66.38;102324.28;84268;1336;23939;-68
2022/03/12 04:22:12;;;;;;;20.90;11.90;;;;;;;-8.85;66.64;102321.71;84268;1338;22724;-67
2022/03/12 04:24:24;;;;;;;19.30;11.30;;;;;;;-8.89;66.81;102322.92;84392;1335;23996;-68
2022/03/12 04:26:37;;;;;;;23.30;11.70;;;;;;;-8.92;66.94;102322.23;83671;1339;1003108;-68
2022/03/12 04:28:46;;;;;;;24.70;12.50;;;;;;;-8.93;67.37;102320.94;83657;1336;1003378;-69
2022/03/12 04:30:56;;;;;;;26.60;11.10;;;;;;;-8.92;67.37;102326.25;84267;1340;25297;-80
2022/03/12 04:33:07;;;;;;;23.20;10.90;;;;;;;-8.92;67.42;102329.01;84403;1337;22627;-80
2022/03/12 04:35:18;;;;;;;21.20;10.50;;;;;;;-8.89;67.55;102332.27;84369;1339;22775;-68
2022/03/12 04:37:31;;;;;;;22.70;12.00;;;;;;;-8.83;67.66;102331.30;84262;1340;25271;-68
2022/03/12 04:39:40;;;;;;;20.30;9.90;;;;;;;-8.77;67.54;102332.73;84354;1335;25973;-68
2022/03/12 04:41:49;;;;;;;21.30;10.10;;;;;;;-8.74;67.42;102325.20;83710;1336;1004015;-81
2022/03/12 04:43:59;;;;;;;23.60;11.20;;;;;;;-8.68;67.42;102321.20;84287;1338;25638;-82
2022/03/12 04:46:12;;;;;;;24.10;11.90;;;;;;;-8.61;67.42;102320.69;84270;1333;22695;-67
2022/03/12 04:48:23;;;;;;;23.90;11.70;;;;;;;-8.55;67.36;102323.00;84378;1339;22606;-68
2022/03/12 04:50:32;;;;;;;28.00;11.50;;;;;;;-8.55;67.19;102319.77;84260;1338;24274;-81
2022/03/12 04:52:41;;;;;;;23.80;12.60;;;;;;;-8.54;67.17;102317.15;83668;1335;1005054;-81
2022/03/12 04:54:52;;;;;;;21.70;12.20;;;;;;;-8.57;67.15;102312.20;83573;1337;1003556;-80
2022/03/12 04:57:04;;;;;;;27.00;12.40;;;;;;;-8.57;67.01;102311.31;84147;1340;22648;-68
2022/03/12 04:59:18;;;;;;;26.40;12.60;;;;;;;-8.62;67.06;102311.69;84298;1337;24330;-80
2022/03/12 05:01:31;;;;;;;23.20;11.80;;;;;;;-8.67;67.18;102309.27;83586;1332;1003829;-79
2022/03/12 05:03:43;;;;;;;25.90;13.30;;;;;;;-8.72;67.36;102304.00;83621;1338;1003541;-80
2022/03/12 05:05:53;;;;;;;25.90;12.20;;;;;;;-8.75;67.51;102304.62;83705;1338;1003727;-79
2022/03/12 05:08:02;;;;;;;25.70;11.40;;;;;;;-8.78;67.46;102299.66;84376;1335;22857;-80
2022/03/12 05:10:12;;;;;;;30.60;11.60;;;;;;;-8.81;67.68;102300.64;84411;1335;25605;-67
2022/03/12 05:12:25;;;;;;;30.20;12.90;;;;;;;-8.86;67.71;102297.46;84384;1333;22699;-67
2022/03/12 05:14:38;;;;;;;21.90;12.10;;;;;;;-8.88;67.79;102298.98;84292;1338;23160;-67
2022/03/12 05:16:48;;;;;;;24.70;11.60;;;;;;;-8.88;68.09;102293.73;84390;1336;22616;-80
2022/03/12 05:18:59;;;;;;;20.50;10.70;;;;;;;-8.85;68.13;102293.11;84397;1335;22621;-80
2022/03/12 05:21:08;;;;;;;25.90;11.50;;;;;;;-8.79;68.09;102293.16;84402;1335;22855;-67
2022/03/12 05:23:21;;;;;;;21.50;11.30;;;;;;;-8.72;68.22;102297.60;84384;1327;22608;-67
2022/03/12 05:25:32;;;;;;;20.20;11.00;;;;;;;-8.61;68.44;102293.12;84395;1333;22743;-80
2022/03/12 05:27:42;;;;;;;23.60;10.90;;;;;;;-8.49;68.25;102299.19;84395;1335;23953;-80
2022/03/12 05:29:54;;;;;;;22.90;10.70;;;;;;;-8.37;68.37;102300.38;84382;1339;22604;-80
2022/03/12 05:32:04;;;;;;;23.00;12.00;;;;;;;-8.23;68.33;102296.08;84396;1327;22724;-67
2022/03/12 05:34:14;;;;;;;23.40;11.30;;;;;;;-8.08;68.27;102296.08;84378;1339;22590;-67
2022/03/12 05:36:27;;;;;;;21.40;11.60;;;;;;;-7.95;68.20;102296.13;84288;1338;22620;-79
2022/03/12 05:38:37;;;;;;;23.30;12.40;;;;;;;-7.86;67.94;102298.40;84306;1337;22777;-79
2022/03/12 05:40:48;;;;;;;25.20;12.10;;;;;;;-7.78;68.04;102293.20;84332;1338;22602;-67
2022/03/12 05:42:59;;;;;;;27.40;13.10;;;;;;;-7.72;67.51;102293.91;84319;1337;22632;-67
2022/03/12 05:45:09;;;;;;;26.80;12.60;;;;;;;-7.71;67.21;102294.80;84333;1339;24390;-66
2022/03/12 05:47:23;;;;;;;24.30;12.20;;;;;;;-7.70;67.30;102294.90;84298;1338;23251;-66
2022/03/12 05:49:32;;;;;;;27.70;12.50;;;;;;;-7.68;67.46;102300.49;84311;1337;22831;-67
2022/03/12 05:51:44;;;;;;;28.90;13.20;;;;;;;-7.63;67.53;102303.17;83609;1338;1003149;-67
2022/03/12 05:53:53;;;;;;;31.00;13.70;;;;;;;-7.57;67.68;102304.59;84265;1337;22597;-66
2022/03/12 05:56:03;;;;;;;24.00;10.50;;;;;;;-7.49;67.66;102307.13;84316;1336;24248;-79
2022/03/12 05:58:15;;;;;;;26.00;13.00;;;;;;;-7.34;67.95;102309.13;84326;1338;22658;-81
2022/03/12 06:00:25;;;;;;;26.50;13.80;;;;;;;-7.17;68.05;102306.66;84312;1338;22595;-67
2022/03/12 06:02:34;;;;;;;30.60;13.60;;;;;;;-7.03;67.78;102307.73;83623;1339;1003450;-66
2022/03/12 06:04:46;;;;;;;32.80;12.70;;;;;;;-6.90;67.62;102302.48;84269;1337;22597;-67
2022/03/12 06:06:56;;;;;;;29.20;13.50;;;;;;;-6.82;67.33;102298.79;84323;1337;22974;-66
2022/03/12 06:09:07;;;;;;;32.90;14.50;;;;;;;-6.73;67.18;102302.34;84295;1338;22585;-66
2022/03/12 06:11:16;;;;;;;33.80;14.80;;;;;;;-6.68;67.18;102302.17;84318;1336;22829;-79
2022/03/12 06:13:27;;;;;;;29.80;14.00;;;;;;;-6.62;67.12;102297.94;84294;1336;22912;-79
2022/03/12 06:15:41;;;;;;;26.10;13.30;;;;;;;-6.59;66.98;102295.98;84318;1337;22616;-67
2022/03/12 06:17:50;;;;;;;30.60;14.00;;;;;;;-6.55;67.24;102292.81;84332;1336;23200;-67
2022/03/12 06:20:00;;;;;;;30.40;13.20;;;;;;;-6.51;67.10;102287.30;84325;1329;22609;-77
2022/03/12 06:22:12;;;;;;;25.20;12.80;;;;;;;-6.46;67.14;102285.90;84268;1337;22694;-79
2022/03/12 06:24:21;;;;;;;26.00;13.20;;;;;;;-6.38;67.40;102281.98;84315;1333;22724;-79
2022/03/12 06:26:35;;;;;;;;;;;;;;;-6.25;67.36;102286.36;84295;1337;22540;-67
2022/03/12 06:28:45;;;;;;;27.20;12.60;;;;;;;-6.11;67.11;102282.55;83589;1339;1003049;-67
2022/03/12 06:30:55;;;;;;;29.10;14.20;;;;;;;-5.91;66.99;102280.38;83637;1336;1003163;-80
2022/03/12 06:33:07;;;;;;;25.00;14.00;;;;;;;-5.69;67.16;102277.38;83607;1338;1002990;-80
2022/03/12 06:35:19;;;;;;;28.10;14.80;;;;;;;-5.40;67.33;102283.67;83651;1330;1003244;-67
2022/03/12 06:37:28;;;;;;;31.30;14.00;;;;;;;-5.11;67.62;102280.20;84294;1338;22617;-67
2022/03/12 06:39:38;;;;;;;25.30;14.10;;;;;;;-4.82;67.24;102279.95;84372;1336;22822;-67
2022/03/12 06:41:48;;;;;;;31.70;14.90;;;;;;;-4.53;66.64;102275.36;84269;1336;22750;-67
2022/03/12 06:44:01;;;;;;;30.20;13.20;;;;;;;-4.22;66.50;102273.29;84409;1336;25368;-69
2022/03/12 06:46:14;;;;;;;37.40;17.30;;;;;;;-3.85;66.14;102277.79;84347;1335;23198;-68
2022/03/12 06:48:24;;;;;;;34.40;16.80;;;;;;;-3.40;66.41;102280.38;84260;1337;24002;-68
2022/03/12 06:50:33;;;;;;;37.60;17.80;;;;;;;-2.97;65.27;102279.73;83665;1331;1016335;-79
2022/03/12 06:52:45;;;;;;;37.60;17.30;;;;;;;-2.64;64.21;102275.65;84380;1335;22867;-78
2022/03/12 06:54:54;;;;;;;29.00;16.80;;;;;;;-2.29;64.06;102277.42;84372;1336;22608;-79
2022/03/12 06:57:04;;;;;;;33.60;17.40;;;;;;;-2.01;62.35;102280.36;84387;1335;24604;-78
2022/03/12 06:59:13;;;;;;;35.50;17.70;;;;;;;-1.80;62.31;102287.97;84370;1335;25443;-78
2022/03/12 07:01:26;;;;;;;37.90;17.70;;;;;;;-1.51;61.54;102297.23;84393;1335;24306;-67
2022/03/12 07:03:35;;;;;;;40.30;18.70;;;;;;;-1.25;61.43;102298.13;84372;1330;24273;-68
2022/03/12 07:05:44;;;;;;;43.40;19.90;;;;;;;-0.96;60.72;102303.06;84401;1337;22593;-67
2022/03/12 07:07:53;;;;;;;47.60;24.30;;;;;;;-0.65;59.36;102301.41;84414;1335;23925;-66
2022/03/12 07:10:06;;;;;;;48.60;22.60;;;;;;;-0.33;58.56;102293.69;84417;1334;26014;-67
2022/03/12 07:12:17;;;;;;;54.40;23.70;;;;;;;0.02;59.14;102292.57;84324;1338;26523;-68
2022/03/12 07:14:24;;;;;;;;;;;;;;;0.42;58.87;102291.06;84396;1335;22582;-67
2022/03/12 07:16:33;;;;;;;35.50;17.40;;;;;;;0.84;57.02;102280.60;84231;1338;25305;-78
2022/03/12 07:18:42;;;;;;;32.40;15.60;;;;;;;1.28;55.09;102278.38;84398;1332;24250;-79
2022/03/12 07:20:52;;;;;;;27.60;14.90;;;;;;;1.68;52.94;102280.77;83679;1334;1002991;-78
2022/03/12 07:23:05;;;;;;;30.30;16.00;;;;;;;2.15;52.45;102283.82;84402;1335;24355;-78
2022/03/12 07:25:17;;;;;;;22.20;13.70;;;;;;;2.95;51.11;102285.02;84373;1335;22838;-68
2022/03/12 07:27:26;;;;;;;26.50;14.90;;;;;;;3.73;49.15;102280.35;84381;1335;22590;-68
2022/03/12 07:29:36;;;;;;;27.70;14.90;;;;;;;4.19;47.10;102283.70;84406;1335;22602;-68
2022/03/12 07:31:49;;;;;;;;;;;;;;;4.53;45.28;102279.66;84385;1335;22947;-67
2022/03/12 07:33:58;;;;;;;26.00;14.00;;;;;;;5.00;43.73;102276.63;84265;1338;22632;-68
2022/03/12 07:36:08;;;;;;;26.40;14.90;;;;;;;5.46;43.13;102275.38;84293;1337;22606;-76
2022/03/12 07:38:16;;;;;;;;;;;;;;;6.09;42.34;102279.81;84310;1338;23940;-77
2022/03/12 07:40:28;;;;;;;19.30;12.60;;;;;;;6.67;40.91;102282.64;84404;1331;22598;-75
2022/03/12 07:42:37;;;;;;;21.60;13.00;;;;;;;7.45;38.80;102278.17;84397;1331;22734;-69
2022/03/12 07:44:46;;;;;;;;;;;;;;;8.25;38.00;102280.91;84260;1338;22590;-70
2022/03/12 07:47:00;;;;;;;18.50;11.20;;;;;;;9.19;36.96;102276.09;84050;1342;25335;-69
2022/03/12 07:49:15;;;;;;;19.90;11.80;;;;;;;10.02;34.27;102276.33;84402;1335;22622;-68
2022/03/12 07:51:26;;;;;;;18.60;11.50;;;;;;;10.67;32.95;102277.16;84397;1335;22690;-73
2022/03/12 07:53:36;;;;;;;16.50;9.90;;;;;;;11.39;32.03;102273.15;84382;1335;22690;-87
2022/03/12 07:55:46;;;;;;;15.10;9.60;;;;;;;12.00;30.63;102270.51;84413;1334;22661;-70
2022/03/12 07:57:58;;;;;;;15.80;10.20;;;;;;;12.37;28.04;102268.95;84381;1335;22602;-70
2022/03/12 08:00:10;;;;;;;17.80;10.20;;;;;;;12.75;27.82;102264.64;84388;1339;24945;-70
2022/03/12 08:02:21;;;;;;;19.10;11.50;;;;;;;13.19;27.72;102260.20;84396;1331;23045;-70
2022/03/12 08:04:35;;;;;;;14.70;9.50;;;;;;;13.64;26.57;102258.45;84387;1336;22653;-69
2022/03/12 08:06:44;;;;;;;13.10;8.70;;;;;;;14.22;26.72;102257.20;84400;1336;22598;-74
2022/03/12 08:08:56;;;;;;;15.90;9.80;;;;;;;14.67;25.12;102258.27;84393;1334;22816;-76
2022/03/12 08:13:36;;;;;;;13.70;9.00;;;;;;;15.60;24.58;102250.67;84374;1333;22701;-69
2022/03/12 08:15:45;;;;;;;12.40;8.00;;;;;;;16.10;23.52;102247.42;84375;1335;25665;-68
2022/03/12 08:17:59;;;;;;;11.60;7.20;;;;;;;16.37;22.65;102244.79;84379;1335;22571;-67
2022/03/12 08:20:11;;;;;;;15.00;8.50;;;;;;;16.44;21.86;102236.65;84380;1335;22612;-78
2022/03/12 08:22:22;;;;;;;8.30;6.20;;;;;;;16.39;21.92;102238.57;84375;1336;22633;-76
2022/03/12 08:24:33;;;;;;;9.40;6.20;;;;;;;16.63;21.89;102232.13;84388;1331;22873;-78
2022/03/12 08:26:42;;;;;;;14.40;6.40;;;;;;;16.93;21.27;102236.62;84402;1335;22590;-77
2022/03/12 08:28:53;;;;;;;8.90;6.60;;;;;;;16.89;20.20;102240.10;84415;1336;22635;-78
2022/03/12 08:31:05;;;;;;;10.60;7.10;;;;;;;16.98;19.98;102242.42;84433;1333;22616;-69
2022/03/12 08:33:14;;;;;;;11.30;7.00;;;;;;;17.12;20.19;102244.41;84391;1337;24263;-70
2022/03/12 08:35:33;;;;;;;9.70;6.50;;;;;;;17.35;19.69;102244.11;84436;1335;22593;-69
2022/03/12 08:37:42;;;;;;;10.30;7.00;;;;;;;17.29;19.51;102245.58;84416;1331;22600;-69
2022/03/12 08:39:52;;;;;;;6.00;4.00;;;;;;;17.52;19.73;102250.53;84358;1335;22614;-69
2022/03/12 08:42:02;;;;;;;12.30;6.90;;;;;;;17.83;18.92;102252.38;84403;1335;22661;-78
2022/03/12 08:44:12;;;;;;;7.60;5.40;;;;;;;18.06;18.31;102249.02;84422;1335;22609;-79
2022/03/12 08:46:23;;;;;;;4.10;3.60;;;;;;;18.12;18.36;102252.66;84399;1330;22617;-68
2022/03/12 08:48:34;;;;;;;4.20;3.40;;;;;;;18.35;18.71;102252.63;84381;1334;25648;-69
2022/03/12 08:50:47;;;;;;;6.20;4.70;;;;;;;18.89;18.02;102245.98;84390;1335;23969;-69
2022/03/12 08:52:57;;;;;;;5.60;3.50;;;;;;;19.09;17.56;102244.05;84389;1335;22616;-70
2022/03/12 08:55:07;;;;;;;6.10;4.00;;;;;;;19.26;17.23;102244.02;84427;1335;25467;-76
2022/03/12 08:57:15;;;;;;;7.00;3.70;;;;;;;19.39;17.38;102243.63;84412;1338;22605;-79
2022/03/12 08:59:25;;;;;;;6.90;3.90;;;;;;;19.55;16.67;102240.23;84406;1335;22546;-76
2022/03/12 09:01:35;;;;;;;6.70;4.80;;;;;;;19.73;16.47;102242.80;84408;1335;22851;-79
2022/03/12 09:03:45;;;;;;;6.50;4.70;;;;;;;19.63;15.62;102237.91;84432;1337;22612;-79
2022/03/12 09:05:55;;;;;;;6.70;5.60;;;;;;;19.25;16.27;102237.87;84258;1334;22762;-76
2022/03/12 09:08:07;;;;;;;;;;;;;;;19.31;15.72;102236.01;84310;1338;22576;-79
2022/03/12 09:10:18;;;;;;;6.10;5.50;;;;;;;19.21;16.14;102231.87;84403;1335;22848;-79
2022/03/12 09:12:29;;;;;;;4.60;4.10;;;;;;;19.25;16.08;102234.14;84384;1335;22617;-75
2022/03/12 09:14:39;;;;;;;5.90;4.90;;;;;;;19.49;15.90;102233.58;84397;1335;25497;-77
2022/03/12 09:16:47;;;;;;;6.80;4.40;;;;;;;19.63;15.09;102228.91;84376;1332;22715;-71
2022/03/12 09:19:00;;;;;;;6.90;4.40;;;;;;;19.52;14.97;102230.09;84388;1333;23015;-70
2022/03/12 09:21:10;;;;;;;6.30;4.80;;;;;;;19.18;14.70;102229.86;84428;1334;24364;-69
2022/03/12 09:23:20;;;;;;;6.30;4.30;;;;;;;18.94;15.55;102225.59;84423;1331;23127;-71
2022/03/12 09:25:30;;;;;;;7.60;4.40;;;;;;;19.22;16.21;102223.65;84411;1335;22704;-77
2022/03/12 09:27:39;;;;;;;5.90;5.30;;;;;;;19.65;16.02;102226.70;84403;1335;22590;-78
2022/03/12 09:29:55;;;;;;;5.10;4.60;;;;;;;19.91;15.84;102221.72;84421;1335;22735;-78
2022/03/12 09:32:06;;;;;;;7.60;5.30;;;;;;;20.09;15.06;102221.41;84268;1337;22689;-67
2022/03/12 09:34:16;;;;;;;7.70;5.90;;;;;;;19.83;15.07;102222.86;84153;1340;22615;-68
2022/03/12 09:36:28;;;;;;;6.50;5.30;;;;;;;19.75;15.04;102214.00;84397;1335;26537;-69
2022/03/12 09:38:42;;;;;;;6.30;5.00;;;;;;;19.66;15.48;102219.92;84165;1336;22768;-71
2022/03/12 09:40:54;;;;;;;8.30;6.10;;;;;;;19.62;15.09;102219.91;84431;1332;22633;-70
2022/03/12 09:43:04;;;;;;;5.10;4.20;;;;;;;19.59;14.71;102218.80;84406;1335;22671;-72
2022/03/12 09:45:19;;;;;;;6.40;5.50;;;;;;;19.51;15.33;102214.05;84408;1335;23061;-78
2022/03/12 09:47:36;;;;;;;7.60;5.00;;;;;;;19.69;15.22;102211.67;84401;1335;22605;-78
2022/03/12 09:49:46;;;;;;;9.90;5.10;;;;;;;19.82;15.28;102211.20;84390;1335;22613;-78
2022/03/12 09:51:57;;;;;;;;;;;;;;;19.79;14.94;102204.80;84413;1338;22584;-77
2022/03/12 09:54:07;;;;;;;5.80;4.40;;;;;;;19.60;15.09;102202.29;84436;1336;22599;-79
2022/03/12 09:56:16;;;;;;;4.50;4.10;;;;;;;19.69;15.15;102189.13;84407;1331;22614;-72
2022/03/12 09:58:24;;;;;;;;;;;;;;;19.68;14.53;102183.89;84396;1334;22593;-69
2022/03/12 10:00:37;;;;;;;7.10;4.20;;;;;;;19.42;14.51;102186.31;84165;1340;24470;-70
2022/03/12 10:02:49;;;;;;;7.00;4.00;;;;;;;19.18;15.02;102184.05;84430;1335;22617;-71